Lake City, Arkansas
Current Conditions -  °F | °C
As of 2:53 AM on Friday 28 Nov 2014 (Local Time) from KJBR Reporting Station
Clear Clear  
Wind Chill: 24°   Ceiling: Unl
Heat Index: 30°   Visibility: 10mi
Dew Point: 28°   Wind: 6mph
Humidity: 92%   Direction: 140°SE
Pressure: 30.4"   Gusts: NA
Location:  35.82°N, 90.43°W
Report Text: KJBR 280853Z AUTO 14005KT 10SM CLR M01/M02 A3040 RMK AO2 SLP295 60001 T10111022 57016
Loading
Personal Weather Stations






























Interactive Weather Map New forecast layout! Learn more

10-Day Weather Forecast

Advertisements
Track Severe Weather on mobile